createdAt,value
2022-11-06T00:00:33.727Z,6.099999905
2022-11-06T00:01:34.572Z,6.599999905
2022-11-06T00:02:35.323Z,5.599999905
2022-11-06T00:03:36.007Z,11
2022-11-06T00:04:36.654Z,7.699999809
2022-11-06T00:05:37.321Z,7
2022-11-06T00:06:38.515Z,7.199999809
2022-11-06T00:08:10.447Z,5.800000191
2022-11-06T00:09:10.800Z,7.800000191
2022-11-06T00:10:11.998Z,6.5
2022-11-06T00:11:12.662Z,8.899999619
2022-11-06T00:12:13.389Z,5.199999809
2022-11-06T00:13:14.015Z,6.900000095
2022-11-06T00:14:14.676Z,8
2022-11-06T00:15:15.260Z,6.599999905
2022-11-06T00:16:15.983Z,6.400000095
2022-11-06T00:17:16.640Z,6.699999809
2022-11-06T00:18:17.349Z,5.099999905
2022-11-06T00:19:18.900Z,6.699999809
2022-11-06T00:20:19.535Z,8.300000191
2022-11-06T00:21:20.897Z,6.400000095
2022-11-06T00:22:21.459Z,5.5
2022-11-06T00:23:22.195Z,5.699999809
2022-11-06T00:24:22.815Z,5.400000095
2022-11-06T00:25:23.469Z,8.100000381
2022-11-06T00:26:25.021Z,6.300000191
2022-11-06T00:27:25.605Z,5.199999809
2022-11-06T00:28:26.243Z,7.199999809
2022-11-06T00:29:27.892Z,5.400000095
2022-11-06T00:30:28.513Z,6.300000191
2022-11-06T00:31:29.231Z,6.099999905
2022-11-06T00:32:29.862Z,6.400000095
2022-11-06T00:33:30.474Z,4.900000095
2022-11-06T00:34:31.130Z,7
2022-11-06T00:35:31.627Z,5.900000095
2022-11-06T00:36:32.273Z,5.699999809
2022-11-06T00:37:32.814Z,5.5
2022-11-06T00:38:33.407Z,5.099999905
2022-11-06T00:39:34.049Z,5.300000191
2022-11-06T00:40:35.333Z,6.800000191
2022-11-06T00:41:35.944Z,6.699999809
2022-11-06T00:42:36.490Z,7.199999809
2022-11-06T00:43:37.087Z,6.5
2022-11-06T00:44:38.277Z,7.199999809
2022-11-06T00:46:09.234Z,7
2022-11-06T00:47:09.869Z,5.099999905
2022-11-06T00:48:10.814Z,5.300000191
2022-11-06T00:49:11.776Z,7.599999905
2022-11-06T00:50:12.419Z,5.699999809
2022-11-06T00:51:13.047Z,6.800000191
2022-11-06T00:52:13.733Z,4.900000095
2022-11-06T00:53:15.240Z,7.099999905
2022-11-06T00:54:15.951Z,5.300000191
2022-11-06T00:55:16.741Z,8.699999809
2022-11-06T00:56:17.398Z,5.699999809
2022-11-06T00:57:18.144Z,4.800000191
2022-11-06T00:58:18.753Z,5.400000095
2022-11-06T00:59:20.323Z,6.199999809
2022-11-06T01:00:21.059Z,5.900000095
2022-11-06T01:01:21.758Z,6.599999905
2022-11-06T01:02:22.452Z,6.199999809
2022-11-06T01:03:23.023Z,5.699999809
2022-11-06T01:04:23.746Z,4.900000095
2022-11-06T01:05:24.446Z,6.300000191
2022-11-06T01:06:25.132Z,6.199999809
2022-11-06T01:07:25.763Z,6.900000095
2022-11-06T01:08:26.418Z,7.5
2022-11-06T01:09:27.923Z,7.199999809
2022-11-06T01:10:28.533Z,6.900000095
2022-11-06T01:11:37.505Z,7.800000191
2022-11-06T01:12:30.242Z,8.399999619
2022-11-06T01:13:30.905Z,7.300000191
2022-11-06T01:14:32.422Z,12.39999962
2022-11-06T01:15:33.048Z,7.199999809
2022-11-06T01:16:33.613Z,7.800000191
2022-11-06T01:17:34.261Z,8
2022-11-06T01:18:34.897Z,7.400000095
2022-11-06T01:19:36.312Z,6.900000095
2022-11-06T01:20:36.928Z,7.699999809
2022-11-06T01:22:08.273Z,8.600000381
2022-11-06T01:23:08.983Z,8.899999619
2022-11-06T01:24:09.677Z,8.800000191
2022-11-06T01:25:10.295Z,7.199999809
2022-11-06T01:26:10.994Z,6.400000095
2022-11-06T01:27:27.780Z,6.800000191
2022-11-06T01:28:13.132Z,9.100000381
2022-11-06T01:29:14.489Z,6.400000095
2022-11-06T01:30:15.091Z,6.900000095
2022-11-06T01:31:15.746Z,6.699999809
2022-11-06T01:32:16.328Z,5.400000095
2022-11-06T01:33:16.977Z,6.400000095
2022-11-06T01:34:17.923Z,6.199999809
2022-11-06T01:35:18.554Z,6.699999809
2022-11-06T01:36:19.159Z,5.900000095
2022-11-06T01:37:19.752Z,7.400000095
2022-11-06T01:38:20.768Z,5.5
2022-11-06T01:39:22.026Z,6.400000095
2022-11-06T01:40:22.697Z,5.300000191
2022-11-06T01:41:23.318Z,7.099999905
2022-11-06T01:42:23.989Z,5.900000095
2022-11-06T01:43:24.667Z,6.599999905
2022-11-06T01:44:25.507Z,5.699999809
2022-11-06T01:45:26.122Z,6.900000095
2022-11-06T01:46:26.827Z,7.300000191
2022-11-06T01:47:27.450Z,6.800000191
2022-11-06T01:48:28.021Z,5.900000095
2022-11-06T01:49:29.522Z,6.5
2022-11-06T01:50:30.151Z,5.400000095
2022-11-06T01:51:30.805Z,6.5
2022-11-06T01:52:31.426Z,5.800000191
2022-11-06T01:53:32.065Z,7.199999809
2022-11-06T01:54:32.786Z,6.099999905
2022-11-06T01:55:33.354Z,6
2022-11-06T01:56:34.550Z,6.199999809
2022-11-06T01:57:35.121Z,5.400000095
2022-11-06T01:58:35.705Z,6.300000191
2022-11-06T01:59:36.987Z,6.400000095
2022-11-06T02:01:07.903Z,4.900000095
2022-11-06T02:02:08.594Z,6.400000095
2022-11-06T02:03:09.214Z,7
2022-11-06T02:04:09.735Z,6.800000191
2022-11-06T02:05:10.320Z,5
2022-11-06T02:06:10.891Z,5.599999905
2022-11-06T02:07:11.505Z,6.5
2022-11-06T02:08:12.428Z,5.199999809
2022-11-06T02:09:13.482Z,5.599999905
2022-11-06T02:10:14.095Z,7
2022-11-06T02:11:15.513Z,5.800000191
2022-11-06T02:12:16.114Z,5.800000191
2022-11-06T02:13:16.764Z,6
2022-11-06T02:14:17.363Z,5.599999905
2022-11-06T02:15:17.978Z,6.900000095
2022-11-06T02:16:18.748Z,4.900000095
2022-11-06T02:17:19.351Z,5.900000095
2022-11-06T02:18:19.990Z,6.099999905
2022-11-06T02:19:21.548Z,6
2022-11-06T02:20:22.177Z,5.900000095
2022-11-06T02:21:22.814Z,9.199999809
2022-11-06T02:22:23.449Z,6.699999809
2022-11-06T02:23:24.042Z,6.300000191
2022-11-06T02:24:24.674Z,5.400000095
2022-11-06T02:25:25.344Z,7.400000095
2022-11-06T02:26:26.044Z,5.699999809
2022-11-06T02:27:26.656Z,5.800000191
2022-11-06T02:28:27.225Z,6.599999905
2022-11-06T02:29:28.545Z,5.699999809
2022-11-06T02:30:29.137Z,5.400000095
2022-11-06T02:31:29.724Z,5.300000191
2022-11-06T02:32:30.353Z,5.400000095
2022-11-06T02:33:31.042Z,7.099999905
2022-11-06T02:34:31.744Z,6
2022-11-06T02:35:32.364Z,6
2022-11-06T02:36:33.088Z,6.199999809
2022-11-06T02:37:33.743Z,7.199999809
2022-11-06T02:38:34.306Z,5.800000191
2022-11-06T02:39:35.527Z,4.900000095
2022-11-06T02:40:36.242Z,6.900000095
2022-11-06T02:42:07.320Z,5.400000095
2022-11-06T02:43:08.039Z,7
2022-11-06T02:44:08.706Z,5.400000095
2022-11-06T02:45:09.341Z,5.5
2022-11-06T02:46:10.062Z,5.099999905
2022-11-06T02:47:10.656Z,5.599999905
2022-11-06T02:48:11.673Z,6.400000095
2022-11-06T02:49:11.845Z,18.20000076
2022-11-06T02:50:13.284Z,9.300000191
2022-11-06T02:51:13.967Z,10.19999981
2022-11-06T02:52:14.555Z,7.300000191
2022-11-06T02:53:15.205Z,10.39999962
2022-11-06T02:54:15.881Z,7.300000191
2022-11-06T02:55:16.526Z,8.800000191
2022-11-06T02:56:17.333Z,6.5
2022-11-06T02:57:18.799Z,9.199999809
2022-11-06T02:58:19.537Z,10.5
2022-11-06T02:59:20.109Z,7.300000191
2022-11-06T03:00:21.239Z,8.300000191
2022-11-06T03:01:22.009Z,7.800000191
2022-11-06T03:02:22.731Z,8.899999619
2022-11-06T03:03:23.208Z,10.89999962
2022-11-06T03:04:23.887Z,10.30000019
2022-11-06T03:05:24.471Z,10.89999962
2022-11-06T03:06:25.206Z,12.30000019
2022-11-06T03:07:25.802Z,10.89999962
2022-11-06T03:08:26.388Z,8.399999619
2022-11-06T03:09:26.973Z,10.39999962
2022-11-06T03:10:28.332Z,8.899999619
2022-11-06T03:11:29.010Z,15.5
2022-11-06T03:12:29.610Z,9.5
2022-11-06T03:13:30.329Z,8.5
2022-11-06T03:14:30.942Z,12.19999981
2022-11-06T03:15:31.563Z,7.900000095
2022-11-06T03:16:32.222Z,9.300000191
2022-11-06T03:17:32.864Z,9.800000191
2022-11-06T03:18:33.430Z,12
2022-11-06T03:19:34.023Z,10.10000038
2022-11-06T03:20:35.252Z,10.19999981
2022-11-06T03:21:36.263Z,11.89999962
2022-11-06T03:23:07.215Z,11
2022-11-06T03:24:07.885Z,12.5
2022-11-06T03:25:08.434Z,7.699999809
2022-11-06T03:26:09.080Z,14.69999981
2022-11-06T03:27:10.512Z,7.199999809
2022-11-06T03:28:11.561Z,11.30000019
2022-11-06T03:29:11.898Z,10.30000019
2022-11-06T03:30:16.486Z,11.5
2022-11-06T03:31:14.240Z,34
2022-11-06T03:32:14.924Z,29.70000076
2022-11-06T03:33:15.589Z,8.199999809
2022-11-06T03:34:16.268Z,8.600000381
2022-11-06T03:35:16.896Z,7.599999905
2022-11-06T03:36:17.505Z,9.600000381
2022-11-06T03:37:18.187Z,15.10000038
2022-11-06T03:38:18.799Z,10.80000019
2022-11-06T03:39:20.039Z,11.5
2022-11-06T03:40:21.520Z,17.29999924
2022-11-06T03:41:22.251Z,15.80000019
2022-11-06T03:42:22.931Z,19.29999924
2022-11-06T03:43:23.564Z,19.10000038
2022-11-06T03:44:24.321Z,14.80000019
2022-11-06T03:45:24.918Z,23.20000076
2022-11-06T03:46:25.537Z,20.5
2022-11-06T03:47:26.222Z,11.10000038
2022-11-06T03:48:26.869Z,10.19999981
2022-11-06T03:49:27.502Z,20.10000038
2022-11-06T03:50:29.033Z,13.30000019
2022-11-06T03:51:29.644Z,17.70000076
2022-11-06T03:52:30.276Z,22.39999962
2022-11-06T03:53:30.884Z,17.39999962
2022-11-06T03:54:31.544Z,14.5
2022-11-06T03:55:32.174Z,24.5
2022-11-06T03:56:32.745Z,18.10000038
2022-11-06T03:57:33.337Z,15.5
2022-11-06T03:58:34.030Z,22.5
2022-11-06T03:59:34.570Z,22.79999924
2022-11-06T04:01:06.216Z,31.5
2022-11-06T04:02:06.892Z,27.29999924
2022-11-06T04:03:07.470Z,14.10000038
2022-11-06T04:04:08.013Z,22.70000076
2022-11-06T04:05:08.756Z,57.70000076
2022-11-06T04:06:10.320Z,80.59999847
2022-11-06T04:07:11.020Z,30.89999962
2022-11-06T04:08:12.028Z,36.20000076
2022-11-06T04:09:12.280Z,57.59999847
2022-11-06T04:10:13.547Z,25.79999924
2022-11-06T04:11:14.152Z,7.699999809
2022-11-06T04:12:14.730Z,20.10000038
2022-11-06T04:13:15.679Z,38.20000076
2022-11-06T04:14:16.325Z,28.10000038
2022-11-06T04:15:17.025Z,21.29999924
2022-11-06T04:16:17.662Z,38.29999924
2022-11-06T04:17:18.297Z,51.70000076
2022-11-06T04:18:18.955Z,22.29999924
2022-11-06T04:19:19.628Z,27.60000038
2022-11-06T04:20:21.041Z,38.79999924
2022-11-06T04:21:21.625Z,22.10000038
2022-11-06T04:22:22.169Z,12.10000038
2022-11-06T04:23:22.782Z,14.69999981
2022-11-06T04:24:23.440Z,10.39999962
2022-11-06T04:25:24.043Z,15.10000038
2022-11-06T04:26:24.628Z,11.39999962
2022-11-06T04:27:25.219Z,9
2022-11-06T04:28:26.799Z,44.70000076
2022-11-06T04:29:27.418Z,19.60000038
2022-11-06T04:30:29.054Z,14.10000038
2022-11-06T04:31:29.624Z,25.20000076
2022-11-06T04:32:30.230Z,31.29999924
2022-11-06T04:33:30.856Z,21
2022-11-06T04:34:31.609Z,14.19999981
2022-11-06T04:35:32.288Z,27.70000076
2022-11-06T04:36:32.879Z,15.80000019
2022-11-06T04:37:33.493Z,16.10000038
2022-11-06T04:38:34.088Z,15.60000038
2022-11-06T04:39:35.735Z,14.60000038
2022-11-06T04:41:07.390Z,23.79999924
2022-11-06T04:42:07.964Z,20.5
2022-11-06T04:43:08.627Z,9.300000191
2022-11-06T04:44:09.260Z,9.5
2022-11-06T04:45:09.858Z,11
2022-11-06T04:46:10.556Z,14.89999962
2022-11-06T04:47:11.129Z,11.30000019
2022-11-06T04:48:12.170Z,9.600000381
2022-11-06T04:49:12.491Z,28.70000076
2022-11-06T04:50:13.103Z,16.70000076
2022-11-06T04:51:14.324Z,7.599999905
2022-11-06T04:52:14.967Z,10.19999981
2022-11-06T04:53:15.614Z,11.60000038
2022-11-06T04:54:16.213Z,13.5
2022-11-06T04:55:16.904Z,14.5
2022-11-06T04:56:21.249Z,5.800000191
2022-11-06T04:57:18.236Z,26.89999962
2022-11-06T04:58:19.787Z,9.100000381
2022-11-06T04:59:20.921Z,7.599999905
2022-11-06T05:00:22.494Z,9
2022-11-06T05:01:23.345Z,7.300000191
2022-11-06T05:02:23.811Z,5.400000095
2022-11-06T05:03:24.377Z,6.400000095
2022-11-06T05:04:25.054Z,5.699999809
2022-11-06T05:05:25.740Z,6.5
2022-11-06T05:06:29.928Z,5.599999905
2022-11-06T05:07:27.042Z,5.800000191
2022-11-06T05:08:27.623Z,4.900000095
2022-11-06T05:09:28.264Z,5.900000095
2022-11-06T05:10:29.512Z,5.300000191
2022-11-06T05:11:30.214Z,5.5
2022-11-06T05:12:30.877Z,5.199999809
2022-11-06T05:13:31.500Z,5.599999905
2022-11-06T05:14:32.125Z,5.699999809
2022-11-06T05:15:32.781Z,4.900000095
2022-11-06T05:16:33.590Z,3.900000095
2022-11-06T05:17:36.651Z,4.900000095
2022-11-06T05:19:05.947Z,4
2022-11-06T05:20:06.569Z,3.900000095
2022-11-06T05:21:07.966Z,3.700000048
2022-11-06T05:22:08.647Z,4.199999809
2022-11-06T05:23:09.315Z,4.5
2022-11-06T05:24:09.971Z,3.200000048
2022-11-06T05:25:10.618Z,3.5
2022-11-06T05:26:11.452Z,3.099999905
2022-11-06T05:27:12.145Z,2.799999952
2022-11-06T05:28:13.695Z,3.5
2022-11-06T05:29:13.986Z,3.099999905
2022-11-06T05:30:14.619Z,2.900000095
2022-11-06T05:31:15.846Z,3.099999905
2022-11-06T05:32:16.535Z,3.799999952
2022-11-06T05:33:17.204Z,5.800000191
2022-11-06T05:34:17.862Z,6.599999905
2022-11-06T05:35:18.522Z,5.599999905
2022-11-06T05:36:19.106Z,3.5
2022-11-06T05:37:19.826Z,3
2022-11-06T05:38:20.886Z,3.099999905
2022-11-06T05:39:21.487Z,4.099999905
2022-11-06T05:40:22.868Z,3
2022-11-06T05:41:24.339Z,4.099999905
2022-11-06T05:42:25.072Z,5.099999905
2022-11-06T05:43:25.669Z,4.5
2022-11-06T05:44:26.336Z,4
2022-11-06T05:45:26.999Z,3.900000095
2022-11-06T05:46:47.792Z,3.099999905
2022-11-06T05:47:28.237Z,4.900000095
2022-11-06T05:48:28.935Z,5.300000191
2022-11-06T05:49:29.535Z,4.400000095
2022-11-06T05:50:30.202Z,4
2022-11-06T05:51:31.821Z,4.900000095
2022-11-06T05:52:32.472Z,4.900000095
2022-11-06T05:53:33.078Z,3.799999952
2022-11-06T05:54:33.693Z,4.199999809
2022-11-06T05:56:04.895Z,5.199999809
2022-11-06T05:57:05.502Z,5.800000191
2022-11-06T05:58:07.039Z,3.599999905
2022-11-06T05:59:07.621Z,4.400000095
2022-11-06T06:00:08.256Z,3.299999952
2022-11-06T06:01:09.505Z,3.5
2022-11-06T06:02:10.228Z,3.700000048
2022-11-06T06:03:10.860Z,4.5
2022-11-06T06:04:11.418Z,3.400000095
2022-11-06T06:05:12.132Z,4.199999809
2022-11-06T06:06:12.760Z,5
2022-11-06T06:07:13.375Z,4.800000191
2022-11-06T06:08:14.410Z,3.400000095
2022-11-06T06:09:14.694Z,8.699999809
2022-11-06T06:10:16.123Z,7.800000191
2022-11-06T06:11:16.774Z,8.899999619
2022-11-06T06:12:18.021Z,7.5
2022-11-06T06:13:18.684Z,11.60000038
2022-11-06T06:14:19.327Z,9.800000191
2022-11-06T06:15:19.993Z,9.199999809
2022-11-06T06:16:20.921Z,11.10000038
2022-11-06T06:17:21.578Z,13.19999981
2022-11-06T06:18:22.285Z,10.39999962
2022-11-06T06:19:22.903Z,8.5
2022-11-06T06:20:23.499Z,8.100000381
2022-11-06T06:21:24.864Z,8.399999619
2022-11-06T06:22:25.527Z,9.600000381
2022-11-06T06:23:26.232Z,23.10000038
2022-11-06T06:24:26.845Z,11.19999981
2022-11-06T06:25:28.101Z,10.19999981
2022-11-06T06:26:28.713Z,10.60000038
2022-11-06T06:27:29.398Z,5.300000191
2022-11-06T06:28:30.173Z,5.800000191
2022-11-06T06:29:30.843Z,8.899999619
2022-11-06T06:30:31.414Z,8.199999809
2022-11-06T06:31:32.910Z,10
2022-11-06T06:32:33.924Z,7
2022-11-06T06:34:05.129Z,11.80000019
2022-11-06T06:35:05.744Z,12.69999981
2022-11-06T06:36:06.393Z,6.900000095
2022-11-06T06:37:07.084Z,10.30000019
2022-11-06T06:38:07.725Z,15.5
2022-11-06T06:39:08.402Z,15.30000019
2022-11-06T06:40:10.014Z,10.39999962
2022-11-06T06:41:11.511Z,10.5
2022-11-06T06:42:12.149Z,9.199999809
2022-11-06T06:43:12.792Z,8.199999809
2022-11-06T06:44:13.536Z,10.5
2022-11-06T06:45:14.999Z,10.10000038
2022-11-06T06:46:15.586Z,16.29999924
2022-11-06T06:47:16.317Z,8.399999619
2022-11-06T06:48:17.133Z,6.400000095
2022-11-06T06:49:17.680Z,34.20000076
2022-11-06T06:50:18.324Z,11.89999962
2022-11-06T06:51:23.739Z,8.800000191
2022-11-06T06:52:20.173Z,6.800000191
2022-11-06T06:53:21.157Z,5.300000191
2022-11-06T06:54:21.889Z,4.699999809
2022-11-06T06:55:22.485Z,3.5
2022-11-06T06:56:23.196Z,3.799999952
2022-11-06T06:57:23.901Z,3.900000095
2022-11-06T06:58:25.889Z,6.699999809
2022-11-06T06:59:26.244Z,9
2022-11-06T07:00:26.891Z,6.699999809
2022-11-06T07:01:28.133Z,4.599999905
2022-11-06T07:02:28.672Z,8.199999809
2022-11-06T07:03:29.430Z,6.699999809
2022-11-06T07:04:30.146Z,10.69999981
2022-11-06T07:05:30.841Z,14.69999981
2022-11-06T07:06:32.016Z,7.400000095
2022-11-06T07:07:32.773Z,12.5
2022-11-06T07:09:04.049Z,7.199999809
2022-11-06T07:10:04.776Z,8.199999809
2022-11-06T07:11:05.351Z,7.099999905
2022-11-06T07:12:06.792Z,4.599999905
2022-11-06T07:13:07.446Z,6.699999809
2022-11-06T07:14:08.081Z,15
2022-11-06T07:15:08.753Z,7.599999905
2022-11-06T07:16:09.409Z,16.70000076
2022-11-06T07:17:10.038Z,20.60000038
2022-11-06T07:18:10.976Z,58.40000153
2022-11-06T07:19:11.484Z,11.10000038
2022-11-06T07:20:12.160Z,42.29999924
2022-11-06T07:21:12.804Z,22.60000038
2022-11-06T07:22:14.383Z,13
2022-11-06T07:23:14.952Z,12.5
2022-11-06T07:24:15.641Z,4.900000095
2022-11-06T07:25:17.048Z,11.69999981
2022-11-06T07:26:17.698Z,9.699999809
2022-11-06T07:27:18.464Z,5.099999905
2022-11-06T07:28:19.563Z,13.19999981
2022-11-06T07:29:19.794Z,13
2022-11-06T07:30:20.880Z,14.60000038
2022-11-06T07:31:22.540Z,4.400000095
2022-11-06T07:32:23.227Z,6.800000191
2022-11-06T07:33:23.893Z,20.70000076
2022-11-06T07:34:24.532Z,4.5
2022-11-06T07:35:25.255Z,11.69999981
2022-11-06T07:36:25.941Z,4.900000095
2022-11-06T07:37:26.634Z,9.100000381
2022-11-06T07:38:27.247Z,20.89999962
2022-11-06T07:39:27.905Z,9.199999809
2022-11-06T07:40:29.569Z,6.900000095
2022-11-06T07:41:30.988Z,16.60000038
2022-11-06T07:42:31.644Z,7.900000095
2022-11-06T07:43:32.231Z,7.800000191
2022-11-06T07:45:03.606Z,7
2022-11-06T07:46:04.305Z,6.300000191
2022-11-06T07:47:04.977Z,4.900000095
2022-11-06T07:48:05.701Z,6.599999905
2022-11-06T07:49:06.314Z,9.399999619
2022-11-06T07:50:06.929Z,11.60000038
2022-11-06T07:51:07.637Z,7.300000191
2022-11-06T07:52:08.886Z,14.19999981
2022-11-06T07:53:09.547Z,15.69999981
2022-11-06T07:54:10.192Z,11.60000038
2022-11-06T07:55:11.311Z,9.699999809
2022-11-06T07:56:12.033Z,18.79999924
2022-11-06T07:57:12.698Z,14.69999981
2022-11-06T07:58:13.645Z,15.30000019
2022-11-06T07:59:14.045Z,7.199999809
2022-11-06T08:00:14.735Z,22.39999962
2022-11-06T08:01:18.308Z,12.10000038
2022-11-06T08:02:16.984Z,9.100000381
2022-11-06T08:03:17.605Z,7.699999809
2022-11-06T08:04:18.271Z,8.699999809
2022-11-06T08:05:18.906Z,7.300000191
2022-11-06T08:06:19.588Z,6.199999809
2022-11-06T08:07:20.344Z,7
2022-11-06T08:08:21.132Z,6.800000191
2022-11-06T08:09:21.720Z,6.5
2022-11-06T08:10:22.347Z,7.400000095
2022-11-06T08:11:23.007Z,5.699999809
2022-11-06T08:12:24.489Z,5.400000095
2022-11-06T08:13:25.148Z,4.199999809
2022-11-06T08:14:25.777Z,3.700000048
2022-11-06T08:15:26.363Z,4.5
2022-11-06T08:16:27.083Z,4
2022-11-06T08:17:27.816Z,5.199999809
2022-11-06T08:18:29.298Z,4.199999809
2022-11-06T08:19:29.999Z,3.400000095
2022-11-06T08:20:30.638Z,3.799999952
2022-11-06T08:21:31.288Z,3.099999905
2022-11-06T08:23:03.240Z,4.900000095
2022-11-06T08:24:03.881Z,3.700000048
2022-11-06T08:25:04.580Z,3.099999905
2022-11-06T08:26:05.242Z,5.599999905
2022-11-06T08:27:05.856Z,3.200000048
2022-11-06T08:28:06.500Z,3.200000048
2022-11-06T08:29:07.082Z,3.799999952
2022-11-06T08:30:07.768Z,3.900000095
2022-11-06T08:31:08.356Z,2.5
2022-11-06T08:32:09.567Z,2.299999952
2022-11-06T08:33:10.182Z,2.799999952
2022-11-06T08:34:10.798Z,2.599999905
2022-11-06T08:35:11.653Z,2.400000095
2022-11-06T08:36:12.883Z,2.299999952
2022-11-06T08:37:13.565Z,2.200000048
2022-11-06T08:38:15.097Z,2.700000048
2022-11-06T08:39:15.526Z,2.400000095
2022-11-06T08:40:17.036Z,2.200000048
2022-11-06T08:41:17.678Z,1.799999952
2022-11-06T08:42:18.894Z,2.400000095
2022-11-06T08:43:19.520Z,2
2022-11-06T08:44:20.235Z,2
2022-11-06T08:45:21.142Z,2.700000048
2022-11-06T08:46:21.828Z,2.099999905
2022-11-06T08:47:22.499Z,3.5
2022-11-06T08:48:23.149Z,2.299999952
2022-11-06T08:49:23.758Z,1.799999952
2022-11-06T08:50:24.483Z,2
2022-11-06T08:51:25.122Z,2.299999952
2022-11-06T08:52:31.224Z,1.600000024
2022-11-06T08:53:27.068Z,2.599999905
2022-11-06T08:54:27.595Z,2.099999905
2022-11-06T08:55:28.277Z,1.5
2022-11-06T08:56:28.846Z,1.700000048
2022-11-06T08:57:29.471Z,1.799999952
2022-11-06T08:58:30.049Z,1.700000048
2022-11-06T08:59:31.383Z,2
2022-11-06T09:01:02.742Z,2.099999905
2022-11-06T09:02:04.191Z,1.700000048
2022-11-06T09:03:04.784Z,2.299999952
2022-11-06T09:04:05.488Z,2.200000048
2022-11-06T09:05:06.143Z,2.299999952
2022-11-06T09:06:06.778Z,3
2022-11-06T09:07:07.362Z,2.200000048
2022-11-06T09:08:08.057Z,2.400000095
2022-11-06T09:09:08.566Z,2.099999905
2022-11-06T09:10:09.228Z,2.5
2022-11-06T09:11:10.511Z,2.799999952
2022-11-06T09:12:11.998Z,2.400000095
2022-11-06T09:13:12.991Z,2.799999952
2022-11-06T09:14:13.337Z,3.299999952
2022-11-06T09:15:14.008Z,1.899999976
2022-11-06T09:16:16.227Z,2.099999905
2022-11-06T09:17:15.395Z,2
2022-11-06T09:18:16.056Z,2.200000048
2022-11-06T09:19:16.718Z,3.299999952
2022-11-06T09:20:17.418Z,3
2022-11-06T09:21:18.044Z,2.200000048
2022-11-06T09:22:19.537Z,2.299999952
2022-11-06T09:23:20.154Z,2.299999952
2022-11-06T09:24:37.282Z,2.400000095
2022-11-06T09:25:21.618Z,2.299999952
2022-11-06T09:26:22.347Z,2.599999905
2022-11-06T09:27:23.052Z,2.700000048
2022-11-06T09:28:23.727Z,2.599999905
2022-11-06T09:29:24.314Z,2.5
2022-11-06T09:30:25.000Z,2.299999952
2022-11-06T09:31:25.645Z,2.599999905
2022-11-06T09:32:27.008Z,2.5
2022-11-06T09:33:27.605Z,3.099999905
2022-11-06T09:34:28.157Z,2.200000048
2022-11-06T09:35:29.536Z,2.400000095
2022-11-06T09:36:30.239Z,2.099999905
2022-11-06T09:37:30.928Z,2.200000048
2022-11-06T09:39:02.354Z,2.299999952
2022-11-06T09:40:06.334Z,2.099999905
2022-11-06T09:41:03.668Z,3.200000048
2022-11-06T09:42:04.348Z,2.799999952
2022-11-06T09:43:05.827Z,2.599999905
2022-11-06T09:44:06.656Z,2.700000048
2022-11-06T09:45:07.013Z,2.799999952
2022-11-06T09:46:07.640Z,4.5
2022-11-06T09:47:08.337Z,2.900000095
2022-11-06T09:48:09.038Z,2.299999952
2022-11-06T09:49:09.779Z,3.799999952
2022-11-06T09:50:10.347Z,2.200000048
2022-11-06T09:51:10.915Z,2.200000048
2022-11-06T09:52:11.624Z,1.899999976
2022-11-06T09:53:12.881Z,2.299999952
2022-11-06T09:54:13.450Z,2.5
2022-11-06T09:55:14.107Z,2.200000048
2022-11-06T09:56:15.289Z,2.299999952
2022-11-06T09:57:15.892Z,2.099999905
2022-11-06T09:58:16.789Z,2.200000048
2022-11-06T09:59:17.224Z,2.099999905
2022-11-06T10:00:17.771Z,2.299999952
2022-11-06T10:01:24.485Z,2.799999952
2022-11-06T10:02:20.694Z,2.599999905
2022-11-06T10:03:21.139Z,2.299999952
2022-11-06T10:04:21.827Z,3
2022-11-06T10:05:22.315Z,3.5
2022-11-06T10:06:22.897Z,2.900000095
2022-11-06T10:07:23.433Z,2.799999952
2022-11-06T10:08:24.157Z,2.799999952
2022-11-06T10:09:24.787Z,2.700000048
2022-11-06T10:10:25.353Z,2.400000095
2022-11-06T10:11:25.978Z,2.799999952
2022-11-06T10:12:27.494Z,2.400000095
2022-11-06T10:13:28.176Z,2.400000095
2022-11-06T10:14:28.762Z,3
2022-11-06T10:15:29.390Z,2
2022-11-06T10:16:30.000Z,2.5
2022-11-06T10:17:30.562Z,3.099999905
2022-11-06T10:19:01.707Z,3.099999905
2022-11-06T10:20:02.462Z,2.900000095
2022-11-06T10:21:03.026Z,2.299999952
2022-11-06T10:22:03.701Z,2.200000048
2022-11-06T10:23:05.268Z,2.5
2022-11-06T10:24:05.982Z,2.200000048
2022-11-06T10:25:06.664Z,2.599999905
2022-11-06T10:26:07.280Z,2.700000048
2022-11-06T10:27:07.880Z,5.400000095
2022-11-06T10:28:08.434Z,2.599999905
2022-11-06T10:29:09.041Z,3.200000048
2022-11-06T10:30:10.329Z,2.200000048
2022-11-06T10:31:10.836Z,3.099999905
2022-11-06T10:32:11.396Z,2.5
2022-11-06T10:33:12.763Z,2.400000095
2022-11-06T10:34:13.386Z,2.5
2022-11-06T10:35:13.982Z,2.599999905
2022-11-06T10:36:14.624Z,3.599999905
2022-11-06T10:37:15.175Z,2.599999905
2022-11-06T10:38:16.057Z,2.299999952
2022-11-06T10:39:16.221Z,2.799999952
2022-11-06T10:40:16.843Z,2.099999905
2022-11-06T10:41:17.989Z,2.299999952
2022-11-06T10:42:18.590Z,2.400000095
2022-11-06T10:43:19.727Z,4.199999809
2022-11-06T10:44:20.276Z,3.099999905
2022-11-06T10:45:21.152Z,3.099999905
2022-11-06T10:46:21.714Z,2.900000095
2022-11-06T10:47:22.345Z,2.5
2022-11-06T10:48:27.399Z,2.299999952
2022-11-06T10:49:23.467Z,2.099999905
2022-11-06T10:50:24.008Z,2.5
2022-11-06T10:51:24.644Z,2.400000095
2022-11-06T10:52:25.214Z,3.200000048
2022-11-06T10:53:26.853Z,2
2022-11-06T10:54:27.418Z,2.599999905
2022-11-06T10:55:27.949Z,3.200000048
2022-11-06T10:56:28.516Z,2.900000095
2022-11-06T10:57:29.096Z,3.200000048
2022-11-06T10:58:29.709Z,2.700000048
2022-11-06T10:59:30.756Z,3.200000048
2022-11-06T11:01:01.687Z,2.599999905
2022-11-06T11:02:03.279Z,3.200000048
2022-11-06T11:03:03.517Z,2.799999952
2022-11-06T11:04:04.063Z,2.5
2022-11-06T11:05:04.597Z,3.200000048
2022-11-06T11:06:05.171Z,2.599999905
2022-11-06T11:07:05.722Z,2.200000048
2022-11-06T11:08:06.339Z,3.400000095
2022-11-06T11:09:06.952Z,2.799999952
2022-11-06T11:10:07.506Z,3.799999952
2022-11-06T11:11:08.073Z,2.5
2022-11-06T11:12:09.277Z,3.900000095
2022-11-06T11:13:10.497Z,3.400000095
2022-11-06T11:14:11.089Z,3.099999905
2022-11-06T11:15:11.651Z,2.799999952
2022-11-06T11:16:12.262Z,2.599999905
2022-11-06T11:17:12.860Z,2.700000048
2022-11-06T11:18:13.914Z,2.700000048
2022-11-06T11:19:14.113Z,2.599999905
2022-11-06T11:20:14.709Z,2.799999952
2022-11-06T11:21:15.438Z,2.799999952
2022-11-06T11:22:15.993Z,3.299999952
2022-11-06T11:23:17.474Z,4
2022-11-06T11:24:18.049Z,3.799999952
2022-11-06T11:25:19.264Z,3
2022-11-06T11:26:20.989Z,3.5
2022-11-06T11:27:21.569Z,3.900000095
2022-11-06T11:28:22.206Z,3.799999952
2022-11-06T11:29:22.816Z,3.700000048
2022-11-06T11:30:23.431Z,3.5
2022-11-06T11:31:23.989Z,3.799999952
2022-11-06T11:32:24.512Z,4.5